Time;durP1;ratioP1;P1;durP2;ratioP2;P2;SDS_P1;SDS_P2;PMS_P1;PMS_P2;Temp;Humidity;BMP_temperature;BMP_pressure;BME280_temperature;BME280_humidity;BME280_pressure;Samples;Min_cycle;Max_cycle;Signal;HPM_P1;HPM_P2
2024/03/04 00:00:44;;;;;;;;;44.50;38.75;;;;;;;;5079612;27;45321;-50
2024/03/04 00:03:10;;;;;;;;;46.25;35.75;;;;;;;;5077698;27;45267;-49
2024/03/04 00:05:35;;;;;;;;;45.25;36.50;;;;;;;;5079188;27;45447;-49
2024/03/04 00:08:01;;;;;;;;;46.50;38.75;;;;;;;;5080067;27;46129;-49
2024/03/04 00:10:27;;;;;;;;;37.50;35.00;;;;;;;;5082807;27;45491;-53
2024/03/04 00:12:52;;;;;;;;;36.00;35.00;;;;;;;;5076071;27;45141;-50
2024/03/04 00:15:17;;;;;;;;;44.50;36.00;;;;;;;;5088131;27;45157;-49
2024/03/04 00:17:42;;;;;;;;;47.00;35.50;;;;;;;;5075543;27;45360;-51
2024/03/04 00:20:09;;;;;;;;;39.75;36.25;;;;;;;;5073441;27;45697;-48
2024/03/04 00:22:34;;;;;;;;;50.75;40.25;;;;;;;;5084105;27;45405;-49
2024/03/04 00:25:00;;;;;;;;;43.50;35.50;;;;;;;;5082859;27;45640;-50
2024/03/04 00:27:25;;;;;;;;;46.25;37.25;;;;;;;;5083463;27;45417;-49
2024/03/04 00:29:51;;;;;;;;;49.00;40.00;;;;;;;;5081027;27;45611;-52
2024/03/04 00:32:16;;;;;;;;;47.50;39.00;;;;;;;;5082558;27;45742;-51
2024/03/04 00:34:41;;;;;;;;;43.25;36.75;;;;;;;;5073993;27;45812;-51
2024/03/04 00:37:06;;;;;;;;;49.00;38.50;;;;;;;;5072459;27;46251;-48
2024/03/04 00:39:31;;;;;;;;;51.25;39.25;;;;;;;;5080155;27;45384;-49
2024/03/04 00:41:58;;;;;;;;;41.50;37.50;;;;;;;;5079979;27;45582;-49
2024/03/04 00:44:23;;;;;;;;;41.00;36.00;;;;;;;;5078554;27;45380;-53
2024/03/04 00:46:48;;;;;;;;;35.25;34.25;;;;;;;;5076194;27;46208;-52
2024/03/04 00:49:15;;;;;;;;;38.50;36.75;;;;;;;;5075107;27;45473;-52
2024/03/04 00:51:40;;;;;;;;;38.00;35.25;;;;;;;;5079135;27;45432;-52
2024/03/04 00:54:05;;;;;;;;;44.50;37.75;;;;;;;;5074337;27;45284;-52
2024/03/04 00:56:30;;;;;;;;;47.75;38.00;;;;;;;;5076836;27;45302;-52
2024/03/04 00:58:56;;;;;;;;;44.00;37.00;;;;;;;;5076913;27;45376;-53
2024/03/04 01:01:23;;;;;;;;;41.25;35.25;;;;;;;;5078044;27;45288;-51
2024/03/04 01:03:48;;;;;;;;;46.25;37.25;;;;;;;;5081283;27;45237;-49
2024/03/04 01:06:13;;;;;;;;;39.75;34.25;;;;;;;;5073950;27;45376;-53
2024/03/04 01:08:38;;;;;;;;;47.75;38.25;;;;;;;;5081483;27;45133;-51
2024/03/04 01:11:03;;;;;;;;;42.25;37.00;;;;;;;;5078778;27;45605;-51
2024/03/04 01:13:29;;;;;;;;;49.50;38.25;;;;;;;;5074365;27;45217;-52
2024/03/04 01:15:54;;;;;;;;;39.00;35.50;;;;;;;;5096656;27;46318;-49
2024/03/04 01:18:20;;;;;;;;;44.25;37.00;;;;;;;;5085986;27;45230;-49
2024/03/04 01:20:45;;;;;;;;;34.50;30.75;;;;;;;;5089179;27;45468;-50
2024/03/04 01:23:11;;;;;;;;;43.75;38.50;;;;;;;;5088454;27;45518;-51
2024/03/04 01:25:36;;;;;;;;;42.00;36.75;;;;;;;;5093166;27;46068;-50
2024/03/04 01:28:01;;;;;;;;;34.00;31.25;;;;;;;;5081622;27;45825;-49
2024/03/04 01:30:27;;;;;;;;;42.25;35.25;;;;;;;;5093214;27;45453;-52
2024/03/04 01:32:52;;;;;;;;;36.75;35.00;;;;;;;;5086605;27;45690;-52
2024/03/04 01:35:18;;;;;;;;;39.75;35.25;;;;;;;;5065793;27;46426;-53
2024/03/04 01:37:43;;;;;;;;;42.00;37.00;;;;;;;;5077648;27;45717;-50
2024/03/04 01:40:09;;;;;;;;;43.00;37.25;;;;;;;;5077158;27;45536;-50
2024/03/04 01:42:34;;;;;;;;;37.75;35.50;;;;;;;;5081220;27;45426;-49
2024/03/04 01:44:59;;;;;;;;;39.75;37.25;;;;;;;;5079444;27;45779;-49
2024/03/04 01:47:25;;;;;;;;;40.75;36.75;;;;;;;;5081230;27;45645;-50
2024/03/04 01:49:51;;;;;;;;;41.50;36.25;;;;;;;;5079876;27;45325;-50
2024/03/04 01:52:17;;;;;;;;;42.00;36.00;;;;;;;;5071010;27;46006;-50
2024/03/04 01:54:44;;;;;;;;;31.33;31.33;;;;;;;;5078361;27;46715;-52
2024/03/04 01:57:11;;;;;;;;;26.75;22.75;;;;;;;;5079407;27;45555;-48
2024/03/04 01:59:37;;;;;;;;;44.00;37.50;;;;;;;;5078020;27;45871;-50
2024/03/04 02:02:03;;;;;;;;;40.75;37.25;;;;;;;;5079810;27;45645;-50
2024/03/04 02:04:30;;;;;;;;;40.75;34.50;;;;;;;;5074575;27;46095;-49
2024/03/04 02:06:55;;;;;;;;;39.50;35.25;;;;;;;;5080168;27;45379;-51
2024/03/04 02:09:24;;;;;;;;;44.00;38.75;;;;;;;;5080577;27;45474;-51
2024/03/04 02:11:50;;;;;;;;;40.50;35.00;;;;;;;;5082191;27;45525;-48
2024/03/04 02:14:15;;;;;;;;;49.25;37.00;;;;;;;;5065863;27;47242;-51
2024/03/04 02:16:40;;;;;;;;;43.50;37.25;;;;;;;;5079234;27;45664;-49
2024/03/04 02:19:07;;;;;;;;;36.50;35.00;;;;;;;;5081156;27;45487;-49
2024/03/04 02:21:34;;;;;;;;;40.25;35.00;;;;;;;;5075642;27;45360;-53
2024/03/04 02:24:00;;;;;;;;;39.50;34.50;;;;;;;;5083131;27;45477;-49
2024/03/04 02:26:25;;;;;;;;;42.50;37.25;;;;;;;;5075220;27;45284;-50
2024/03/04 02:28:50;;;;;;;;;43.25;36.50;;;;;;;;5079293;27;45502;-50
2024/03/04 02:31:16;;;;;;;;;35.00;34.75;;;;;;;;5082254;27;45655;-50
2024/03/04 02:33:45;;;;;;;;;38.75;36.00;;;;;;;;5076378;27;45440;-53
2024/03/04 02:36:10;;;;;;;;;42.75;35.00;;;;;;;;5078605;27;45435;-49
2024/03/04 02:38:37;;;;;;;;;37.50;35.00;;;;;;;;5083676;27;45464;-49
2024/03/04 02:41:04;;;;;;;;;52.25;38.25;;;;;;;;5083205;27;45309;-51
2024/03/04 02:43:29;;;;;;;;;45.00;37.00;;;;;;;;5084321;27;45456;-50
2024/03/04 02:45:55;;;;;;;;;41.50;33.75;;;;;;;;5087415;27;45364;-51
2024/03/04 02:48:20;;;;;;;;;43.75;38.50;;;;;;;;5083587;27;45492;-49
2024/03/04 02:50:45;;;;;;;;;45.00;38.25;;;;;;;;5076453;27;45488;-50
2024/03/04 02:53:11;;;;;;;;;38.50;35.50;;;;;;;;5078396;27;45557;-51
2024/03/04 02:55:37;;;;;;;;;40.50;35.00;;;;;;;;5083523;27;45307;-52
2024/03/04 02:58:03;;;;;;;;;44.50;38.50;;;;;;;;5083665;27;45401;-50
2024/03/04 03:00:28;;;;;;;;;40.75;36.00;;;;;;;;5083000;27;45461;-53
2024/03/04 03:02:53;;;;;;;;;46.00;37.00;;;;;;;;5080924;27;48111;-49
2024/03/04 03:05:18;;;;;;;;;35.50;28.50;;;;;;;;5073870;27;45271;-50
2024/03/04 03:07:44;;;;;;;;;44.50;38.50;;;;;;;;5081057;27;45368;-49
2024/03/04 03:10:09;;;;;;;;;41.00;35.25;;;;;;;;5074432;27;45345;-51
2024/03/04 03:12:34;;;;;;;;;42.25;39.25;;;;;;;;5079795;27;45421;-49
2024/03/04 03:15:00;;;;;;;;;47.25;38.25;;;;;;;;5089475;27;45382;-53
2024/03/04 03:17:25;;;;;;;;;47.25;39.50;;;;;;;;5080096;27;45578;-52
2024/03/04 03:19:51;;;;;;;;;44.00;37.50;;;;;;;;5074524;27;45428;-51
2024/03/04 03:22:16;;;;;;;;;43.75;37.50;;;;;;;;5080418;27;45462;-53
2024/03/04 03:24:42;;;;;;;;;47.75;39.25;;;;;;;;5079612;27;45554;-50
2024/03/04 03:27:07;;;;;;;;;44.75;37.00;;;;;;;;5077353;27;45236;-49
2024/03/04 03:29:32;;;;;;;;;41.75;35.25;;;;;;;;5072706;27;45315;-49
2024/03/04 03:31:57;;;;;;;;;41.50;35.25;;;;;;;;5077245;27;45416;-48
2024/03/04 03:34:22;;;;;;;;;49.25;38.50;;;;;;;;5076114;27;45450;-49
2024/03/04 03:36:47;;;;;;;;;41.00;35.50;;;;;;;;5083923;27;45443;-50
2024/03/04 03:39:14;;;;;;;;;43.25;38.00;;;;;;;;5080774;27;45408;-51
2024/03/04 03:41:39;;;;;;;;;52.25;37.00;;;;;;;;5078524;27;46025;-52
2024/03/04 03:44:05;;;;;;;;;41.25;34.75;;;;;;;;5082647;27;45320;-51
2024/03/04 03:46:30;;;;;;;;;40.75;36.00;;;;;;;;5083169;27;45411;-50
2024/03/04 03:48:56;;;;;;;;;32.75;31.50;;;;;;;;5085678;27;45297;-50
2024/03/04 03:51:21;;;;;;;;;38.00;33.75;;;;;;;;5079258;27;46969;-52
2024/03/04 03:53:46;;;;;;;;;38.75;35.75;;;;;;;;5084859;27;45313;-50
2024/03/04 03:56:12;;;;;;;;;37.25;34.75;;;;;;;;5077098;27;45400;-48
2024/03/04 03:58:37;;;;;;;;;31.50;23.25;;;;;;;;5082307;27;45445;-53
2024/03/04 04:01:03;;;;;;;;;42.50;34.50;;;;;;;;5077847;27;45272;-51
2024/03/04 04:03:28;;;;;;;;;37.75;35.75;;;;;;;;5078176;27;45212;-52
2024/03/04 04:05:53;;;;;;;;;42.50;37.00;;;;;;;;5073242;27;45452;-50
2024/03/04 04:08:19;;;;;;;;;42.00;33.75;;;;;;;;5077406;27;45397;-52
2024/03/04 04:10:44;;;;;;;;;43.00;36.00;;;;;;;;5067207;27;47033;-51
2024/03/04 04:13:09;;;;;;;;;39.50;31.50;;;;;;;;5075476;27;45302;-52
2024/03/04 04:15:35;;;;;;;;;40.00;36.25;;;;;;;;5076432;27;45610;-51
2024/03/04 04:18:00;;;;;;;;;31.00;27.00;;;;;;;;5073929;27;45573;-52
2024/03/04 04:20:25;;;;;;;;;38.50;35.00;;;;;;;;5075603;27;45590;-48
2024/03/04 04:22:50;;;;;;;;;29.67;27.00;;;;;;;;5082913;27;45298;-49
2024/03/04 04:25:16;;;;;;;;;39.25;32.50;;;;;;;;5080111;27;45437;-52
2024/03/04 04:27:42;;;;;;;;;39.25;35.25;;;;;;;;5088584;27;45457;-53
2024/03/04 04:30:07;;;;;;;;;37.75;32.50;;;;;;;;5076297;27;46897;-51
2024/03/04 04:32:34;;;;;;;;;45.50;38.25;;;;;;;;5081220;27;45448;-52
2024/03/04 04:35:00;;;;;;;;;39.25;35.25;;;;;;;;5079418;27;45478;-49
2024/03/04 04:37:25;;;;;;;;;36.25;31.00;;;;;;;;5090839;27;45348;-50
2024/03/04 04:39:50;;;;;;;;;33.00;30.67;;;;;;;;5087725;27;46337;-48
2024/03/04 04:42:15;;;;;;;;;31.67;31.67;;;;;;;;5089555;27;45955;-50
2024/03/04 04:44:41;;;;;;;;;34.00;30.33;;;;;;;;5089173;27;45236;-48
2024/03/04 04:47:06;;;;;;;;;36.33;30.33;;;;;;;;5090531;27;45370;-52
2024/03/04 04:49:31;;;;;;;;;27.33;24.00;;;;;;;;5088264;27;45365;-51
2024/03/04 04:51:56;;;;;;;;;23.33;22.00;;;;;;;;5090047;27;45421;-50
2024/03/04 04:54:22;;;;;;;;;23.67;21.00;;;;;;;;5088132;27;45369;-51
2024/03/04 04:56:48;;;;;;;;;16.00;16.00;;;;;;;;5084511;27;45313;-49
2024/03/04 04:59:14;;;;;;;;;19.67;17.67;;;;;;;;5078527;27;46339;-51
2024/03/04 05:01:39;;;;;;;;;17.67;17.33;;;;;;;;5079536;27;45403;-51
2024/03/04 05:04:06;;;;;;;;;15.33;14.00;;;;;;;;5076726;27;45428;-48
2024/03/04 05:06:31;;;;;;;;;27.67;20.67;;;;;;;;5079598;27;45632;-50
2024/03/04 05:08:57;;;;;;;;;21.33;15.00;;;;;;;;5079277;27;45458;-50
2024/03/04 05:11:22;;;;;;;;;20.00;18.33;;;;;;;;5078603;27;45449;-50
2024/03/04 05:13:48;;;;;;;;;20.00;20.00;;;;;;;;5077789;27;45396;-49
2024/03/04 05:16:13;;;;;;;;;24.33;21.00;;;;;;;;5071866;27;45560;-51
2024/03/04 05:18:39;;;;;;;;;23.33;20.00;;;;;;;;5086189;27;47094;-53
2024/03/04 05:21:04;;;;;;;;;31.67;29.33;;;;;;;;5090094;27;45309;-50
2024/03/04 05:23:32;;;;;;;;;21.67;20.33;;;;;;;;5089974;27;45361;-51
2024/03/04 05:25:58;;;;;;;;;23.00;21.00;;;;;;;;5090015;27;45233;-51
2024/03/04 05:28:23;;;;;;;;;29.25;27.75;;;;;;;;5083807;27;45642;-49
2024/03/04 05:30:49;;;;;;;;;28.33;25.00;;;;;;;;5078172;27;45348;-50
2024/03/04 05:33:14;;;;;;;;;30.25;26.00;;;;;;;;5054904;27;45614;-52
2024/03/04 05:35:39;;;;;;;;;27.50;27.50;;;;;;;;5076255;27;45591;-53
2024/03/04 05:38:05;;;;;;;;;31.67;24.67;;;;;;;;5089786;27;46605;-51
2024/03/04 05:40:30;;;;;;;;;25.67;21.33;;;;;;;;5080311;27;45515;-51
2024/03/04 05:42:56;;;;;;;;;26.67;24.00;;;;;;;;5088267;27;45337;-51
2024/03/04 05:45:21;;;;;;;;;28.00;25.00;;;;;;;;5088921;27;45487;-53
2024/03/04 05:47:47;;;;;;;;;27.67;25.00;;;;;;;;5085716;27;46301;-52
2024/03/04 05:50:15;;;;;;;;;21.00;21.00;;;;;;;;5086088;27;45493;-48
2024/03/04 05:52:40;;;;;;;;;19.67;19.00;;;;;;;;5081691;27;45391;-51
2024/03/04 05:55:06;;;;;;;;;24.67;22.00;;;;;;;;5078188;27;45416;-50
2024/03/04 05:57:32;;;;;;;;;32.33;24.33;;;;;;;;5097053;27;46457;-52
2024/03/04 05:59:57;;;;;;;;;23.00;21.33;;;;;;;;5088948;27;45787;-49
2024/03/04 06:02:22;;;;;;;;;21.67;19.67;;;;;;;;5084874;27;45594;-52
2024/03/04 06:04:48;;;;;;;;;23.33;21.33;;;;;;;;5081767;27;45314;-52
2024/03/04 06:07:15;;;;;;;;;25.00;25.00;;;;;;;;5086964;27;46396;-53
2024/03/04 06:09:41;;;;;;;;;27.00;25.00;;;;;;;;5081518;27;45341;-50
2024/03/04 06:12:06;;;;;;;;;25.33;21.00;;;;;;;;5092999;27;45719;-53
2024/03/04 06:14:32;;;;;;;;;24.67;19.00;;;;;;;;5086980;27;45339;-51
2024/03/04 06:16:57;;;;;;;;;35.67;22.00;;;;;;;;5092332;27;45933;-50
2024/03/04 06:19:22;;;;;;;;;25.00;23.33;;;;;;;;5089347;27;45314;-52
2024/03/04 06:21:47;;;;;;;;;23.33;20.33;;;;;;;;5093767;27;45530;-53
2024/03/04 06:24:13;;;;;;;;;22.33;20.67;;;;;;;;5082897;27;45711;-53
2024/03/04 06:26:39;;;;;;;;;26.00;25.67;;;;;;;;5087670;27;45599;-53
2024/03/04 06:29:05;;;;;;;;;30.67;24.00;;;;;;;;5084193;27;45287;-50
2024/03/04 06:31:30;;;;;;;;;27.33;23.00;;;;;;;;5085389;27;45496;-53
2024/03/04 06:33:55;;;;;;;;;24.67;20.33;;;;;;;;5087295;27;45607;-51
2024/03/04 06:36:20;;;;;;;;;25.33;25.33;;;;;;;;5080313;27;47162;-52
2024/03/04 06:38:46;;;;;;;;;23.33;20.33;;;;;;;;5083272;27;45274;-53
2024/03/04 06:41:11;;;;;;;;;26.67;22.67;;;;;;;;5078808;27;45319;-52
2024/03/04 06:43:40;;;;;;;;;20.67;20.00;;;;;;;;5084994;27;45273;-51
2024/03/04 06:46:06;;;;;;;;;20.67;20.00;;;;;;;;5083735;27;46206;-51
2024/03/04 06:48:31;;;;;;;;;23.67;21.33;;;;;;;;5085919;27;45675;-50
2024/03/04 06:50:56;;;;;;;;;29.33;24.67;;;;;;;;5090036;27;45526;-48
2024/03/04 06:53:21;;;;;;;;;30.33;25.00;;;;;;;;5081844;27;45808;-51
2024/03/04 06:55:46;;;;;;;;;34.33;25.67;;;;;;;;5090721;27;45971;-48
2024/03/04 06:58:11;;;;;;;;;26.67;25.33;;;;;;;;5079049;27;45360;-48
2024/03/04 07:00:37;;;;;;;;;24.67;21.33;;;;;;;;5085801;27;45395;-49
2024/03/04 07:03:02;;;;;;;;;30.33;26.00;;;;;;;;5084015;27;45467;-47
2024/03/04 07:05:27;;;;;;;;;28.67;27.33;;;;;;;;5084222;27;45393;-47
2024/03/04 07:07:52;;;;;;;;;25.00;22.00;;;;;;;;5073763;27;45329;-48
2024/03/04 07:10:18;;;;;;;;;20.33;19.33;;;;;;;;5083647;27;45487;-49
2024/03/04 07:12:43;;;;;;;;;18.33;18.33;;;;;;;;5079386;27;45557;-47
2024/03/04 07:15:08;;;;;;;;;20.67;18.67;;;;;;;;5071072;27;45580;-47
2024/03/04 07:17:34;;;;;;;;;24.00;20.33;;;;;;;;5075930;27;45789;-50
2024/03/04 07:19:59;;;;;;;;;27.00;17.67;;;;;;;;5073805;27;46985;-50
2024/03/04 07:22:25;;;;;;;;;21.00;19.33;;;;;;;;5076385;28;45634;-51
2024/03/04 07:24:50;;;;;;;;;22.67;21.00;;;;;;;;5076707;28;48229;-51
2024/03/04 07:27:15;;;;;;;;;18.67;16.00;;;;;;;;5065928;28;45985;-48
2024/03/04 07:29:40;;;;;;;;;24.33;20.00;;;;;;;;5078885;27;45275;-51
2024/03/04 07:32:06;;;;;;;;;23.67;20.33;;;;;;;;5073242;28;45292;-49
2024/03/04 07:34:32;;;;;;;;;21.00;20.67;;;;;;;;5079104;27;47326;-49
2024/03/04 07:36:57;;;;;;;;;26.67;24.67;;;;;;;;5074924;27;45223;-47
2024/03/04 07:39:22;;;;;;;;;27.00;21.00;;;;;;;;5077995;27;45801;-51
2024/03/04 07:41:47;;;;;;;;;24.67;20.67;;;;;;;;5075948;27;45500;-50
2024/03/04 07:44:12;;;;;;;;;20.33;20.33;;;;;;;;5076100;27;46358;-47
2024/03/04 07:46:38;;;;;;;;;24.67;22.67;;;;;;;;5073684;27;45350;-50
2024/03/04 07:49:03;;;;;;;;;26.67;20.67;;;;;;;;5078216;27;45549;-50
2024/03/04 07:51:28;;;;;;;;;23.33;20.67;;;;;;;;5076489;27;45255;-49
2024/03/04 07:53:54;;;;;;;;;24.33;22.33;;;;;;;;5075663;27;45764;-47
2024/03/04 07:56:19;;;;;;;;;23.00;16.33;;;;;;;;5071720;27;45280;-48
2024/03/04 07:58:44;;;;;;;;;23.00;18.33;;;;;;;;5078370;27;45570;-46
2024/03/04 08:01:11;;;;;;;;;21.67;20.00;;;;;;;;5074907;27;45389;-47
2024/03/04 08:03:36;;;;;;;;;22.33;20.67;;;;;;;;5077524;27;46064;-48
2024/03/04 08:06:01;;;;;;;;;21.67;19.33;;;;;;;;5075901;27;45477;-52
2024/03/04 08:08:26;;;;;;;;;23.00;21.00;;;;;;;;5073948;28;45477;-51
2024/03/04 08:10:52;;;;;;;;;21.00;19.33;;;;;;;;5076970;27;45558;-49
2024/03/04 08:13:17;;;;;;;;;22.33;21.00;;;;;;;;5075671;27;45476;-49
2024/03/04 08:15:42;;;;;;;;;21.67;20.00;;;;;;;;5069687;27;45477;-48
2024/03/04 08:18:09;;;;;;;;;24.33;21.33;;;;;;;;5087835;27;45343;-49
2024/03/04 08:20:34;;;;;;;;;26.00;23.00;;;;;;;;5075140;27;45536;-49
2024/03/04 08:23:00;;;;;;;;;23.33;22.33;;;;;;;;5073732;27;45304;-51
2024/03/04 08:25:25;;;;;;;;;35.33;24.67;;;;;;;;5078273;27;45816;-48
2024/03/04 08:27:50;;;;;;;;;28.33;23.33;;;;;;;;5076258;28;45215;-50
2024/03/04 08:30:16;;;;;;;;;23.67;23.00;;;;;;;;5073158;27;45506;-48
2024/03/04 08:32:42;;;;;;;;;24.67;23.67;;;;;;;;5076612;28;46169;-51
2024/03/04 08:35:09;;;;;;;;;28.33;24.33;;;;;;;;5076180;27;45485;-47
2024/03/04 08:37:34;;;;;;;;;27.33;24.00;;;;;;;;5063179;27;45406;-51
2024/03/04 08:40:03;;;;;;;;;24.33;24.33;;;;;;;;5062343;28;45346;-52
2024/03/04 08:42:28;;;;;;;;;27.00;24.33;;;;;;;;5067655;27;45401;-53
2024/03/04 08:44:53;;;;;;;;;24.67;23.00;;;;;;;;5077940;27;45414;-51
2024/03/04 08:47:18;;;;;;;;;26.67;25.00;;;;;;;;5067222;27;45465;-49
2024/03/04 08:49:43;;;;;;;;;24.33;24.00;;;;;;;;5079400;27;45372;-51
2024/03/04 08:52:09;;;;;;;;;25.67;21.00;;;;;;;;5070811;28;45902;-52
2024/03/04 08:54:34;;;;;;;;;23.67;23.33;;;;;;;;5061764;27;45290;-50
2024/03/04 08:56:59;;;;;;;;;26.33;23.00;;;;;;;;5079359;27;45476;-52
2024/03/04 08:59:24;;;;;;;;;30.67;26.67;;;;;;;;5079878;27;45400;-50
2024/03/04 09:01:49;;;;;;;;;28.33;26.00;;;;;;;;5074241;27;45569;-50
2024/03/04 09:04:14;;;;;;;;;26.00;24.33;;;;;;;;5076603;27;45476;-49
2024/03/04 09:06:40;;;;;;;;;29.00;25.67;;;;;;;;5080293;27;45291;-52
2024/03/04 09:09:05;;;;;;;;;24.33;20.67;;;;;;;;5080619;27;45358;-51
2024/03/04 09:11:30;;;;;;;;;57.00;43.50;;;;;;;;5080237;27;45302;-50
2024/03/04 09:13:56;;;;;;;;;150.75;123.00;;;;;;;;5080851;27;45250;-51
2024/03/04 09:16:21;;;;;;;;;19.33;15.33;;;;;;;;5079719;27;45276;-50
2024/03/04 09:18:46;;;;;;;;;9.33;8.33;;;;;;;;5084774;27;45794;-53
2024/03/04 09:21:12;;;;;;;;;9.00;9.00;;;;;;;;5083143;27;46075;-50
2024/03/04 09:23:38;;;;;;;;;6.00;6.00;;;;;;;;5084795;27;45522;-50
2024/03/04 09:26:07;;;;;;;;;13.33;11.00;;;;;;;;5084196;27;45623;-52
2024/03/04 09:28:32;;;;;;;;;9.67;7.00;;;;;;;;5087690;27;45699;-50
2024/03/04 09:30:57;;;;;;;;;8.67;7.33;;;;;;;;5095056;27;47232;-51
2024/03/04 09:33:22;;;;;;;;;7.33;7.00;;;;;;;;5092206;27;45349;-49
2024/03/04 09:35:47;;;;;;;;;8.67;8.33;;;;;;;;5092797;27;45484;-52
2024/03/04 09:38:13;;;;;;;;;8.33;6.00;;;;;;;;5090652;27;45582;-50
2024/03/04 09:40:42;;;;;;;;;10.00;7.67;;;;;;;;5096593;27;46205;-53
2024/03/04 09:43:09;;;;;;;;;12.00;9.67;;;;;;;;5093196;27;45240;-52
2024/03/04 09:45:34;;;;;;;;;7.00;5.67;;;;;;;;5093585;27;45452;-50
2024/03/04 09:48:01;;;;;;;;;5.33;5.00;;;;;;;;5085325;27;45540;-49
2024/03/04 09:50:26;;;;;;;;;4.33;4.33;;;;;;;;5090708;27;45445;-51
2024/03/04 09:52:54;;;;;;;;;6.00;4.00;;;;;;;;5090003;27;45379;-50
2024/03/04 09:55:19;;;;;;;;;3.00;3.00;;;;;;;;5086174;27;45406;-49
2024/03/04 09:57:45;;;;;;;;;6.00;4.67;;;;;;;;5082787;27;45244;-49
2024/03/04 10:00:16;;;;;;;;;0.00;0.00;;;;;;;;5081556;27;46313;-52
2024/03/04 10:02:42;;;;;;;;;2.00;2.00;;;;;;;;5078019;27;45697;-51
2024/03/04 10:05:12;;;;;;;;;3.00;2.25;;;;;;;;5083151;27;45614;-53
2024/03/04 10:07:37;;;;;;;;;4.75;1.50;;;;;;;;5074020;27;45443;-53
2024/03/04 10:10:03;;;;;;;;;2.00;2.00;;;;;;;;5074653;27;46039;-52
2024/03/04 10:12:28;;;;;;;;;1.50;1.50;;;;;;;;5077860;27;45333;-51
2024/03/04 10:14:59;;;;;;;;;4.00;2.00;;;;;;;;5083714;27;45287;-53
2024/03/04 10:17:25;;;;;;;;;4.00;1.75;;;;;;;;5076028;27;45496;-51
2024/03/04 10:20:11;;;;;;;;;1.75;1.75;;;;;;;;5078716;27;45764;-51
2024/03/04 10:22:38;;;;;;;;;1.00;1.00;;;;;;;;5085772;27;45370;-50
2024/03/04 10:25:07;;;;;;;;;2.00;0.75;;;;;;;;5075756;27;45359;-51
2024/03/04 10:27:33;;;;;;;;;2.00;2.00;;;;;;;;5079161;27;45448;-50
2024/03/04 10:30:09;;;;;;;;;1.00;1.00;;;;;;;;5068940;27;45558;-49
2024/03/04 10:32:34;;;;;;;;;6.00;2.20;;;;;;;;5083009;27;45322;-51
2024/03/04 10:35:04;;;;;;;;;1.00;0.50;;;;;;;;5082776;27;45394;-49
2024/03/04 10:37:29;;;;;;;;;2.00;2.00;;;;;;;;5077280;27;45459;-52
2024/03/04 10:39:54;;;;;;;;;2.00;2.00;;;;;;;;5082712;27;46059;-51
2024/03/04 10:42:20;;;;;;;;;2.25;2.00;;;;;;;;5084523;27;45715;-52
2024/03/04 10:44:46;;;;;;;;;2.00;2.00;;;;;;;;5066919;27;45345;-52
2024/03/04 10:47:12;;;;;;;;;3.00;1.00;;;;;;;;5074573;27;45453;-53
2024/03/04 10:49:38;;;;;;;;;3.25;1.75;;;;;;;;5075460;27;47375;-50
2024/03/04 10:52:03;;;;;;;;;2.00;1.00;;;;;;;;5083591;27;45429;-51
2024/03/04 10:54:29;;;;;;;;;1.75;1.75;;;;;;;;5073815;27;45272;-51
2024/03/04 10:56:56;;;;;;;;;0.00;0.00;;;;;;;;5071683;27;45271;-52
2024/03/04 10:59:23;;;;;;;;;0.25;0.00;;;;;;;;5098221;27;46361;-51
2024/03/04 11:01:49;;;;;;;;;0.60;0.00;;;;;;;;5084574;27;45312;-51
2024/03/04 11:04:15;;;;;;;;;1.00;1.00;;;;;;;;5073316;27;45271;-51
2024/03/04 11:06:41;;;;;;;;;1.00;1.00;;;;;;;;5092135;27;45567;-51
2024/03/04 11:09:08;;;;;;;;;1.50;1.00;;;;;;;;5098014;27;46358;-50
2024/03/04 11:11:42;;;;;;;;;0.00;0.00;;;;;;;;5098633;27;45526;-49
2024/03/04 11:14:14;;;;;;;;;0.60;0.60;;;;;;;;5099916;27;45384;-49
2024/03/04 11:16:49;;;;;;;;;1.00;0.00;;;;;;;;5098978;27;45621;-52
2024/03/04 11:19:23;;;;;;;;;1.00;1.00;;;;;;;;5087763;27;46277;-52
2024/03/04 11:21:49;;;;;;;;;0.80;0.80;;;;;;;;5095449;27;45368;-51
2024/03/04 11:24:16;;;;;;;;;2.40;2.00;;;;;;;;5079943;27;45361;-51
2024/03/04 11:26:42;;;;;;;;;1.00;1.00;;;;;;;;5070444;27;45757;-52
2024/03/04 11:29:08;;;;;;;;;2.00;1.00;;;;;;;;5081359;27;46387;-52
2024/03/04 11:31:33;;;;;;;;;3.00;2.00;;;;;;;;5083631;27;46421;-51
2024/03/04 11:34:01;;;;;;;;;1.75;1.75;;;;;;;;5082464;27;45677;-51
2024/03/04 11:36:27;;;;;;;;;2.00;2.00;;;;;;;;5083916;27;45310;-48
2024/03/04 11:38:52;;;;;;;;;1.50;1.50;;;;;;;;5081523;27;46557;-50
2024/03/04 11:41:36;;;;;;;;;2.00;0.75;;;;;;;;5082720;27;45425;-49
2024/03/04 11:44:01;;;;;;;;;1.00;1.00;;;;;;;;5083362;27;45459;-51
2024/03/04 11:46:26;;;;;;;;;1.00;1.00;;;;;;;;5082139;27;45393;-50
2024/03/04 11:48:52;;;;;;;;;1.00;1.00;;;;;;;;5083493;27;45475;-52
2024/03/04 11:51:35;;;;;;;;;1.25;1.00;;;;;;;;5081379;27;45512;-51
2024/03/04 11:54:03;;;;;;;;;1.60;1.20;;;;;;;;5082432;27;46384;-49
2024/03/04 11:56:28;;;;;;;;;0.75;0.75;;;;;;;;5080445;27;45547;-52
2024/03/04 11:58:55;;;;;;;;;1.00;1.00;;;;;;;;5076974;27;46138;-51
2024/03/04 12:01:21;;;;;;;;;1.00;1.00;;;;;;;;5083357;27;46041;-51
2024/03/04 12:03:55;;;;;;;;;0.60;0.60;;;;;;;;5083205;27;45485;-52
2024/03/04 12:06:20;;;;;;;;;0.50;0.00;;;;;;;;5080140;27;45586;-51
2024/03/04 12:08:45;;;;;;;;;1.00;1.00;;;;;;;;5082606;27;45408;-52
2024/03/04 12:11:12;;;;;;;;;1.25;1.25;;;;;;;;5087067;27;45271;-52
2024/03/04 12:13:37;;;;;;;;;2.00;1.00;;;;;;;;5085745;27;45430;-50
2024/03/04 12:16:04;;;;;;;;;1.00;1.00;;;;;;;;5082190;27;45339;-51
2024/03/04 12:18:30;;;;;;;;;0.00;0.00;;;;;;;;5083732;27;46958;-51
2024/03/04 12:20:55;;;;;;;;;1.40;1.40;;;;;;;;5083750;27;45343;-51
2024/03/04 12:23:21;;;;;;;;;1.00;1.00;;;;;;;;5084693;27;45390;-50
2024/03/04 12:25:48;;;;;;;;;1.00;1.00;;;;;;;;5078637;27;45377;-50
2024/03/04 12:28:19;;;;;;;;;0.25;0.25;;;;;;;;5085003;27;46322;-51
2024/03/04 12:30:44;;;;;;;;;0.40;0.40;;;;;;;;5088457;27;45311;-50
2024/03/04 12:33:10;;;;;;;;;2.50;1.00;;;;;;;;5087546;27;45818;-52
2024/03/04 12:35:35;;;;;;;;;1.00;1.00;;;;;;;;5089859;27;45305;-51
2024/03/04 12:38:02;;;;;;;;;2.25;0.50;;;;;;;;5088381;27;46352;-50
2024/03/04 12:40:27;;;;;;;;;1.20;1.00;;;;;;;;5089172;27;45550;-51
2024/03/04 12:43:01;;;;;;;;;4.00;0.75;;;;;;;;5087299;27;45358;-51
2024/03/04 12:45:26;;;;;;;;;3.00;1.00;;;;;;;;5090963;27;45365;-49
2024/03/04 12:47:52;;;;;;;;;1.00;1.00;;;;;;;;5088018;27;45412;-51
2024/03/04 12:50:18;;;;;;;;;2.00;1.00;;;;;;;;5086352;27;45401;-50
2024/03/04 12:52:43;;;;;;;;;2.25;2.25;;;;;;;;5082292;27;45425;-51
2024/03/04 12:55:16;;;;;;;;;1.00;1.00;;;;;;;;5083859;27;45344;-51
2024/03/04 12:57:42;;;;;;;;;0.75;0.00;;;;;;;;5078806;27;46319;-49
2024/03/04 13:00:13;;;;;;;;;1.00;1.00;;;;;;;;5081875;27;45208;-49
2024/03/04 13:02:42;;;;;;;;;0.00;0.00;;;;;;;;5073233;27;45386;-52
2024/03/04 13:05:08;;;;;;;;;2.00;1.00;;;;;;;;5085160;27;45373;-52
2024/03/04 13:07:34;;;;;;;;;0.00;0.00;;;;;;;;5082754;27;46059;-50
2024/03/04 13:09:59;;;;;;;;;1.00;1.00;;;;;;;;5084632;27;45266;-51
2024/03/04 13:12:25;;;;;;;;;1.50;0.00;;;;;;;;5082236;27;45350;-50
2024/03/04 13:14:50;;;;;;;;;0.75;0.75;;;;;;;;5086008;27;45244;-49
2024/03/04 13:17:15;;;;;;;;;0.25;0.00;;;;;;;;5081857;27;45628;-51
2024/03/04 13:19:40;;;;;;;;;1.00;1.00;;;;;;;;5085916;27;45240;-51
2024/03/04 13:22:06;;;;;;;;;1.00;1.00;;;;;;;;5081748;27;45682;-51
2024/03/04 13:24:31;;;;;;;;;0.00;0.00;;;;;;;;5084413;27;45331;-50
2024/03/04 13:26:56;;;;;;;;;1.00;1.00;;;;;;;;5078364;27;45414;-48
2024/03/04 13:29:21;;;;;;;;;3.25;1.75;;;;;;;;5087465;27;45944;-48
2024/03/04 13:31:47;;;;;;;;;0.00;0.00;;;;;;;;5079895;27;45699;-51
2024/03/04 13:34:12;;;;;;;;;1.00;1.00;;;;;;;;5083985;27;45418;-51
2024/03/04 13:36:37;;;;;;;;;0.00;0.00;;;;;;;;5082174;27;46326;-50
2024/03/04 13:39:03;;;;;;;;;0.00;0.00;;;;;;;;5085937;27;45594;-51
2024/03/04 13:41:28;;;;;;;;;0.50;0.50;;;;;;;;5091398;27;45463;-49
2024/03/04 13:43:53;;;;;;;;;1.00;1.00;;;;;;;;5085358;27;45358;-48
2024/03/04 13:46:18;;;;;;;;;0.75;0.75;;;;;;;;5081775;27;46476;-48
2024/03/04 13:48:43;;;;;;;;;1.00;1.00;;;;;;;;5085853;27;45465;-49
2024/03/04 13:51:08;;;;;;;;;2.50;1.00;;;;;;;;5076547;28;45410;-49
2024/03/04 13:53:36;;;;;;;;;0.25;0.00;;;;;;;;5082080;27;45380;-49
2024/03/04 13:56:02;;;;;;;;;1.75;1.75;;;;;;;;5079138;27;45364;-50
2024/03/04 13:58:27;;;;;;;;;0.00;0.00;;;;;;;;5079232;27;45504;-52
2024/03/04 14:00:53;;;;;;;;;2.75;1.00;;;;;;;;5082045;27;45468;-49
2024/03/04 14:03:18;;;;;;;;;0.50;0.50;;;;;;;;5081306;27;45497;-49
2024/03/04 14:05:44;;;;;;;;;0.00;0.00;;;;;;;;5086803;27;46381;-50
2024/03/04 14:08:09;;;;;;;;;2.50;1.00;;;;;;;;5084871;27;45672;-50
2024/03/04 14:10:37;;;;;;;;;1.00;1.00;;;;;;;;5092189;27;45240;-49
2024/03/04 14:13:02;;;;;;;;;0.00;0.00;;;;;;;;5085285;27;45448;-47
2024/03/04 14:15:27;;;;;;;;;4.00;0.75;;;;;;;;5089188;27;46133;-50
2024/03/04 14:17:52;;;;;;;;;0.67;0.67;;;;;;;;5085954;27;45372;-49